sensor_id;sensor_type;location;lat;lon;timestamp;pressure;altitude;pressure_sealevel;temperature;humidity
53300;BME280;39187;48.476;8.310;2023-07-30T00:01:12;91081.63;;;15.19;100.00
53300;BME280;39187;48.476;8.310;2023-07-30T00:03:38;91084.47;;;15.16;100.00
53300;BME280;39187;48.476;8.310;2023-07-30T00:06:03;91084.34;;;15.38;100.00
53300;BME280;39187;48.476;8.310;2023-07-30T00:08:29;91078.53;;;15.30;100.00
53300;BME280;39187;48.476;8.310;2023-07-30T00:10:56;91078.53;;;15.21;100.00
53300;BME280;39187;48.476;8.310;2023-07-30T00:13:23;91077.19;;;15.25;100.00
53300;BME280;39187;48.476;8.310;2023-07-30T00:15:48;91073.31;;;15.27;100.00
53300;BME280;39187;48.476;8.310;2023-07-30T00:18:15;91079.44;;;15.36;100.00
53300;BME280;39187;48.476;8.310;2023-07-30T00:20:40;91083.44;;;15.22;100.00
53300;BME280;39187;48.476;8.310;2023-07-30T00:23:06;91078.53;;;15.21;100.00
53300;BME280;39187;48.476;8.310;2023-07-30T00:25:31;91091.34;;;15.26;100.00
53300;BME280;39187;48.476;8.310;2023-07-30T00:27:57;91090.00;;;15.31;100.00
53300;BME280;39187;48.476;8.310;2023-07-30T00:30:22;91098.38;;;15.42;100.00
53300;BME280;39187;48.476;8.310;2023-07-30T00:32:48;91093.56;;;15.18;100.00
53300;BME280;39187;48.476;8.310;2023-07-30T00:35:13;91090.59;;;15.35;100.00
53300;BME280;39187;48.476;8.310;2023-07-30T00:37:39;91102.97;;;15.41;100.00
53300;BME280;39187;48.476;8.310;2023-07-30T00:40:05;91093.84;;;15.20;100.00
53300;BME280;39187;48.476;8.310;2023-07-30T00:42:31;91104.31;;;15.37;100.00
53300;BME280;39187;48.476;8.310;2023-07-30T00:44:56;91098.50;;;15.29;100.00
53300;BME280;39187;48.476;8.310;2023-07-30T00:47:22;91094.59;;;15.21;100.00
53300;BME280;39187;48.476;8.310;2023-07-30T00:49:48;91103.53;;;15.09;100.00
53300;BME280;39187;48.476;8.310;2023-07-30T00:52:16;91094.44;;;15.15;100.00
53300;BME280;39187;48.476;8.310;2023-07-30T00:54:42;91098.91;;;15.18;100.00
53300;BME280;39187;48.476;8.310;2023-07-30T00:57:09;91097.41;;;15.17;100.00
53300;BME280;39187;48.476;8.310;2023-07-30T00:59:35;91090.31;;;15.33;100.00
53300;BME280;39187;48.476;8.310;2023-07-30T01:02:00;91092.19;;;15.05;100.00
53300;BME280;39187;48.476;8.310;2023-07-30T01:04:28;91100.41;;;15.10;100.00
53300;BME280;39187;48.476;8.310;2023-07-30T01:06:54;91096.50;;;15.11;100.00
53300;BME280;39187;48.476;8.310;2023-07-30T01:09:19;91102.34;;;15.19;100.00
53300;BME280;39187;48.476;8.310;2023-07-30T01:11:45;91114.38;;;15.05;100.00
53300;BME280;39187;48.476;8.310;2023-07-30T01:14:12;91106.53;;;15.20;100.00
53300;BME280;39187;48.476;8.310;2023-07-30T01:16:39;91105.88;;;15.07;100.00
53300;BME280;39187;48.476;8.310;2023-07-30T01:19:06;91110.66;;;15.03;100.00
53300;BME280;39187;48.476;8.310;2023-07-30T01:21:35;91112.31;;;15.18;100.00
53300;BME280;39187;48.476;8.310;2023-07-30T01:24:00;91112.59;;;15.11;100.00
53300;BME280;39187;48.476;8.310;2023-07-30T01:26:30;91102.91;;;15.05;100.00
53300;BME280;39187;48.476;8.310;2023-07-30T01:29:00;91111.28;;;15.16;100.00
53300;BME280;39187;48.476;8.310;2023-07-30T01:31:27;91105.72;;;15.01;100.00
53300;BME280;39187;48.476;8.310;2023-07-30T01:33:56;91114.53;;;15.11;100.00
53300;BME280;39187;48.476;8.310;2023-07-30T01:36:22;91113.69;;;15.23;100.00
53300;BME280;39187;48.476;8.310;2023-07-30T01:38:49;91110.09;;;15.17;100.00
53300;BME280;39187;48.476;8.310;2023-07-30T01:41:15;91120.53;;;15.24;100.00
53300;BME280;39187;48.476;8.310;2023-07-30T01:43:41;91119.91;;;15.20;100.00
53300;BME280;39187;48.476;8.310;2023-07-30T01:46:06;91120.06;;;15.25;100.00
53300;BME280;39187;48.476;8.310;2023-07-30T01:48:32;91101.31;;;15.25;100.00
53300;BME280;39187;48.476;8.310;2023-07-30T01:50:57;91104.22;;;15.00;100.00
53300;BME280;39187;48.476;8.310;2023-07-30T01:53:23;91109.91;;;15.02;100.00
53300;BME280;39187;48.476;8.310;2023-07-30T01:55:48;91100.81;;;15.00;100.00
53300;BME280;39187;48.476;8.310;2023-07-30T01:58:14;91106.47;;;15.02;100.00
53300;BME280;39187;48.476;8.310;2023-07-30T02:00:40;91105.13;;;14.97;100.00
53300;BME280;39187;48.476;8.310;2023-07-30T02:03:06;91112.63;;;15.20;100.00
53300;BME280;39187;48.476;8.310;2023-07-30T02:05:31;91118.09;;;15.08;100.00
53300;BME280;39187;48.476;8.310;2023-07-30T02:07:58;91117.03;;;15.05;100.00
53300;BME280;39187;48.476;8.310;2023-07-30T02:10:25;91109.91;;;15.02;100.00
53300;BME280;39187;48.476;8.310;2023-07-30T02:12:51;91120.00;;;14.98;100.00
53300;BME280;39187;48.476;8.310;2023-07-30T02:15:16;91114.22;;;15.00;100.00
53300;BME280;39187;48.476;8.310;2023-07-30T02:17:42;91117.63;;;15.00;100.00
53300;BME280;39187;48.476;8.310;2023-07-30T02:20:08;91127.41;;;14.85;100.00
53300;BME280;39187;48.476;8.310;2023-07-30T02:22:34;91114.94;;;14.91;100.00
53300;BME280;39187;48.476;8.310;2023-07-30T02:24:59;91106.44;;;14.83;100.00
53300;BME280;39187;48.476;8.310;2023-07-30T02:27:24;91104.88;;;14.64;100.00
53300;BME280;39187;48.476;8.310;2023-07-30T02:29:50;91121.44;;;14.72;100.00
53300;BME280;39187;48.476;8.310;2023-07-30T02:32:15;91115.91;;;14.75;100.00
53300;BME280;39187;48.476;8.310;2023-07-30T02:34:41;91109.22;;;14.71;100.00
53300;BME280;39187;48.476;8.310;2023-07-30T02:37:06;91110.34;;;14.61;100.00
53300;BME280;39187;48.476;8.310;2023-07-30T02:39:32;91111.25;;;14.67;100.00
53300;BME280;39187;48.476;8.310;2023-07-30T02:41:57;91108.19;;;14.77;100.00
53300;BME280;39187;48.476;8.310;2023-07-30T02:44:23;91108.97;;;14.87;100.00
53300;BME280;39187;48.476;8.310;2023-07-30T02:46:48;91111.09;;;14.61;100.00
53300;BME280;39187;48.476;8.310;2023-07-30T02:49:14;91107.94;;;14.54;100.00
53300;BME280;39187;48.476;8.310;2023-07-30T02:51:40;91110.97;;;14.65;100.00
53300;BME280;39187;48.476;8.310;2023-07-30T02:54:07;91104.22;;;14.51;100.00
53300;BME280;39187;48.476;8.310;2023-07-30T02:56:33;91107.66;;;14.61;100.00
53300;BME280;39187;48.476;8.310;2023-07-30T02:58:59;91102.78;;;14.68;100.00
53300;BME280;39187;48.476;8.310;2023-07-30T03:01:24;91106.53;;;14.80;100.00
53300;BME280;39187;48.476;8.310;2023-07-30T03:03:50;91098.78;;;14.73;100.00
53300;BME280;39187;48.476;8.310;2023-07-30T03:06:16;91102.03;;;14.59;100.00
53300;BME280;39187;48.476;8.310;2023-07-30T03:08:43;91098.75;;;14.64;100.00
53300;BME280;39187;48.476;8.310;2023-07-30T03:11:08;91096.25;;;14.69;100.00
53300;BME280;39187;48.476;8.310;2023-07-30T03:13:34;91098.34;;;14.65;100.00
53300;BME280;39187;48.476;8.310;2023-07-30T03:15:59;91102.78;;;14.68;100.00
53300;BME280;39187;48.476;8.310;2023-07-30T03:18:25;91098.66;;;14.76;100.00
53300;BME280;39187;48.476;8.310;2023-07-30T03:20:50;91111.44;;;14.72;100.00
53300;BME280;39187;48.476;8.310;2023-07-30T03:23:16;91113.19;;;14.66;100.00
53300;BME280;39187;48.476;8.310;2023-07-30T03:25:41;91102.97;;;14.74;100.00
53300;BME280;39187;48.476;8.310;2023-07-30T03:28:07;91112.38;;;14.88;100.00
53300;BME280;39187;48.476;8.310;2023-07-30T03:30:33;91115.50;;;14.86;100.00
53300;BME280;39187;48.476;8.310;2023-07-30T03:32:58;91121.59;;;14.87;100.00
53300;BME280;39187;48.476;8.310;2023-07-30T03:35:24;91121.59;;;14.87;100.00
53300;BME280;39187;48.476;8.310;2023-07-30T03:37:49;91118.81;;;14.90;100.00
53300;BME280;39187;48.476;8.310;2023-07-30T03:40:15;91119.09;;;14.92;100.00
53300;BME280;39187;48.476;8.310;2023-07-30T03:42:40;91125.56;;;15.04;100.00
53300;BME280;39187;48.476;8.310;2023-07-30T03:45:06;91118.22;;;14.95;100.00
53300;BME280;39187;48.476;8.310;2023-07-30T03:47:31;91129.25;;;14.97;100.00
53300;BME280;39187;48.476;8.310;2023-07-30T03:49:57;91125.94;;;14.84;100.00
53300;BME280;39187;48.476;8.310;2023-07-30T03:52:22;91126.09;;;14.90;100.00
53300;BME280;39187;48.476;8.310;2023-07-30T03:54:48;91122.91;;;14.73;100.00
53300;BME280;39187;48.476;8.310;2023-07-30T03:57:13;91121.03;;;14.92;100.00
53300;BME280;39187;48.476;8.310;2023-07-30T03:59:39;91126.38;;;14.82;100.00
53300;BME280;39187;48.476;8.310;2023-07-30T04:02:04;91117.19;;;14.62;100.00
53300;BME280;39187;48.476;8.310;2023-07-30T04:04:30;91120.84;;;14.77;100.00
53300;BME280;39187;48.476;8.310;2023-07-30T04:06:55;91112.59;;;14.62;100.00
53300;BME280;39187;48.476;8.310;2023-07-30T04:09:21;91112.41;;;14.57;100.00
53300;BME280;39187;48.476;8.310;2023-07-30T04:11:46;91112.28;;;14.60;100.00
53300;BME280;39187;48.476;8.310;2023-07-30T04:14:12;91116.59;;;14.58;100.00
53300;BME280;39187;48.476;8.310;2023-07-30T04:16:37;91115.69;;;14.52;100.00
53300;BME280;39187;48.476;8.310;2023-07-30T04:19:03;91126.56;;;14.35;100.00
53300;BME280;39187;48.476;8.310;2023-07-30T04:21:29;91119.72;;;14.34;100.00
53300;BME280;39187;48.476;8.310;2023-07-30T04:23:54;91122.22;;;14.51;100.00
53300;BME280;39187;48.476;8.310;2023-07-30T04:26:20;91126.81;;;14.50;100.00
53300;BME280;39187;48.476;8.310;2023-07-30T04:28:45;91147.72;;;14.64;100.00
53300;BME280;39187;48.476;8.310;2023-07-30T04:31:11;91141.56;;;14.55;100.00
53300;BME280;39187;48.476;8.310;2023-07-30T04:33:36;91148.94;;;14.20;100.00
53300;BME280;39187;48.476;8.310;2023-07-30T04:36:01;91130.25;;;14.29;100.00
53300;BME280;39187;48.476;8.310;2023-07-30T04:38:27;91129.00;;;14.42;100.00
53300;BME280;39187;48.476;8.310;2023-07-30T04:40:54;91152.00;;;14.53;100.00
53300;BME280;39187;48.476;8.310;2023-07-30T04:43:19;91147.06;;;14.29;100.00
53300;BME280;39187;48.476;8.310;2023-07-30T04:45:45;91145.25;;;14.26;100.00
53300;BME280;39187;48.476;8.310;2023-07-30T04:48:11;91157.19;;;14.34;100.00
53300;BME280;39187;48.476;8.310;2023-07-30T04:50:36;91150.91;;;14.50;100.00
53300;BME280;39187;48.476;8.310;2023-07-30T04:53:04;91152.72;;;14.53;100.00
53300;BME280;39187;48.476;8.310;2023-07-30T04:55:30;91159.66;;;14.41;100.00
53300;BME280;39187;48.476;8.310;2023-07-30T04:57:55;91161.78;;;14.47;100.00
53300;BME280;39187;48.476;8.310;2023-07-30T05:00:20;91163.25;;;14.48;100.00
53300;BME280;39187;48.476;8.310;2023-07-30T05:02:47;91162.56;;;14.56;100.00
53300;BME280;39187;48.476;8.310;2023-07-30T05:05:13;91157.47;;;14.49;100.00
53300;BME280;39187;48.476;8.310;2023-07-30T05:07:38;91166.19;;;14.40;100.00
53300;BME280;39187;48.476;8.310;2023-07-30T05:10:05;91166.84;;;14.54;100.00
53300;BME280;39187;48.476;8.310;2023-07-30T05:12:32;91163.56;;;14.50;100.00
53300;BME280;39187;48.476;8.310;2023-07-30T05:14:57;91164.22;;;14.63;100.00
53300;BME280;39187;48.476;8.310;2023-07-30T05:17:23;91162.31;;;14.63;100.00
53300;BME280;39187;48.476;8.310;2023-07-30T05:19:48;91154.19;;;14.45;100.00
53300;BME280;39187;48.476;8.310;2023-07-30T05:22:14;91164.78;;;14.36;100.00
53300;BME280;39187;48.476;8.310;2023-07-30T05:24:39;91163.44;;;14.31;100.00
53300;BME280;39187;48.476;8.310;2023-07-30T05:27:05;91157.19;;;14.34;100.00
53300;BME280;39187;48.476;8.310;2023-07-30T05:29:30;91158.16;;;14.40;100.00
53300;BME280;39187;48.476;8.310;2023-07-30T05:31:56;91165.81;;;14.51;100.00
53300;BME280;39187;48.476;8.310;2023-07-30T05:34:21;91159.88;;;14.56;100.00
53300;BME280;39187;48.476;8.310;2023-07-30T05:36:47;91164.03;;;14.35;100.00
53300;BME280;39187;48.476;8.310;2023-07-30T05:39:12;91157.84;;;14.38;100.00
53300;BME280;39187;48.476;8.310;2023-07-30T05:41:38;91157.66;;;14.33;100.00
53300;BME280;39187;48.476;8.310;2023-07-30T05:44:03;91154.22;;;14.32;100.00
53300;BME280;39187;48.476;8.310;2023-07-30T05:46:29;91157.09;;;14.38;100.00
53300;BME280;39187;48.476;8.310;2023-07-30T05:48:54;91155.78;;;14.42;100.00
53300;BME280;39187;48.476;8.310;2023-07-30T05:51:20;91151.84;;;14.34;100.00
53300;BME280;39187;48.476;8.310;2023-07-30T05:53:45;91154.03;;;14.49;100.00
53300;BME280;39187;48.476;8.310;2023-07-30T05:56:11;91160.03;;;14.53;100.00
53300;BME280;39187;48.476;8.310;2023-07-30T05:58:38;91160.94;;;14.59;100.00
53300;BME280;39187;48.476;8.310;2023-07-30T06:01:04;91157.88;;;14.69;100.00
53300;BME280;39187;48.476;8.310;2023-07-30T06:03:29;91160.19;;;14.58;100.00
53300;BME280;39187;48.476;8.310;2023-07-30T06:05:55;91165.56;;;14.58;100.00
53300;BME280;39187;48.476;8.310;2023-07-30T06:08:20;91169.44;;;14.66;100.00
53300;BME280;39187;48.476;8.310;2023-07-30T06:10:46;91166.00;;;14.57;100.00
53300;BME280;39187;48.476;8.310;2023-07-30T06:13:12;91178.63;;;14.87;100.00
53300;BME280;39187;48.476;8.310;2023-07-30T06:15:37;91180.78;;;15.01;100.00
53300;BME280;39187;48.476;8.310;2023-07-30T06:18:03;91190.53;;;14.86;100.00
53300;BME280;39187;48.476;8.310;2023-07-30T06:20:29;91207.53;;;14.92;100.00
53300;BME280;39187;48.476;8.310;2023-07-30T06:22:55;91215.03;;;14.75;100.00
53300;BME280;39187;48.476;8.310;2023-07-30T06:25:21;91206.69;;;14.73;100.00
53300;BME280;39187;48.476;8.310;2023-07-30T06:27:46;91192.09;;;14.65;100.00
53300;BME280;39187;48.476;8.310;2023-07-30T06:30:12;91200.72;;;14.26;100.00
53300;BME280;39187;48.476;8.310;2023-07-30T06:32:37;91205.69;;;14.36;100.00
53300;BME280;39187;48.476;8.310;2023-07-30T06:35:03;91202.22;;;14.27;100.00
53300;BME280;39187;48.476;8.310;2023-07-30T06:37:29;91205.97;;;14.08;100.00
53300;BME280;39187;48.476;8.310;2023-07-30T06:39:54;91200.94;;;13.97;100.00
53300;BME280;39187;48.476;8.310;2023-07-30T06:42:20;91214.59;;;14.12;100.00
53300;BME280;39187;48.476;8.310;2023-07-30T06:44:45;91211.41;;;14.04;100.00
53300;BME280;39187;48.476;8.310;2023-07-30T06:47:11;91219.56;;;14.00;100.00
53300;BME280;39187;48.476;8.310;2023-07-30T06:49:36;91226.63;;;14.07;100.00
53300;BME280;39187;48.476;8.310;2023-07-30T06:52:02;91228.22;;;14.04;100.00
53300;BME280;39187;48.476;8.310;2023-07-30T06:54:29;91228.22;;;14.04;100.00
53300;BME280;39187;48.476;8.310;2023-07-30T06:56:55;91229.66;;;14.18;100.00
53300;BME280;39187;48.476;8.310;2023-07-30T06:59:20;91232.22;;;14.22;100.00
53300;BME280;39187;48.476;8.310;2023-07-30T07:01:45;91239.06;;;14.23;100.00
53300;BME280;39187;48.476;8.310;2023-07-30T07:04:11;91231.78;;;14.23;100.00
53300;BME280;39187;48.476;8.310;2023-07-30T07:06:36;91231.28;;;14.16;100.00
53300;BME280;39187;48.476;8.310;2023-07-30T07:09:02;91234.97;;;14.31;100.00
53300;BME280;39187;48.476;8.310;2023-07-30T07:11:28;91233.38;;;14.33;100.00
53300;BME280;39187;48.476;8.310;2023-07-30T07:13:53;91242.22;;;14.43;100.00
53300;BME280;39187;48.476;8.310;2023-07-30T07:16:19;91235.69;;;14.44;100.00
53300;BME280;39187;48.476;8.310;2023-07-30T07:18:44;91231.88;;;14.54;100.00
53300;BME280;39187;48.476;8.310;2023-07-30T07:21:10;91242.91;;;14.56;100.00
53300;BME280;39187;48.476;8.310;2023-07-30T07:23:36;91245.28;;;14.54;100.00
53300;BME280;39187;48.476;8.310;2023-07-30T07:26:01;91235.19;;;14.58;100.00
53300;BME280;39187;48.476;8.310;2023-07-30T07:28:27;91239.56;;;14.65;100.00
53300;BME280;39187;48.476;8.310;2023-07-30T07:30:54;91240.97;;;14.78;100.00
53300;BME280;39187;48.476;8.310;2023-07-30T07:33:20;91246.19;;;14.82;100.00
53300;BME280;39187;48.476;8.310;2023-07-30T07:35:45;91237.47;;;14.91;100.00
53300;BME280;39187;48.476;8.310;2023-07-30T07:38:11;91254.47;;;14.97;100.00
53300;BME280;39187;48.476;8.310;2023-07-30T07:40:40;91261.38;;;14.85;100.00
53300;BME280;39187;48.476;8.310;2023-07-30T07:43:07;91247.88;;;14.89;100.00
53300;BME280;39187;48.476;8.310;2023-07-30T07:45:33;91246.59;;;15.02;100.00
53300;BME280;39187;48.476;8.310;2023-07-30T07:47:58;91242.56;;;14.98;100.00
53300;BME280;39187;48.476;8.310;2023-07-30T07:50:24;91251.72;;;15.09;100.00
53300;BME280;39187;48.476;8.310;2023-07-30T07:52:49;91249.56;;;15.04;100.00
53300;BME280;39187;48.476;8.310;2023-07-30T07:55:15;91247.13;;;15.19;100.00
53300;BME280;39187;48.476;8.310;2023-07-30T07:57:40;91247.13;;;15.19;100.00
53300;BME280;39187;48.476;8.310;2023-07-30T08:00:06;91243.84;;;15.15;100.00
53300;BME280;39187;48.476;8.310;2023-07-30T08:02:32;91245.44;;;15.12;100.00
53300;BME280;39187;48.476;8.310;2023-07-30T08:04:57;91250.91;;;15.00;100.00
53300;BME280;39187;48.476;8.310;2023-07-30T08:07:23;91249.22;;;14.93;100.00
53300;BME280;39187;48.476;8.310;2023-07-30T08:09:48;91246.47;;;15.06;100.00
53300;BME280;39187;48.476;8.310;2023-07-30T08:12:14;91244.69;;;15.03;100.00
53300;BME280;39187;48.476;8.310;2023-07-30T08:14:39;91245.19;;;15.19;100.00
53300;BME280;39187;48.476;8.310;2023-07-30T08:17:05;91249.19;;;15.15;100.00
53300;BME280;39187;48.476;8.310;2023-07-30T08:19:31;91252.56;;;15.06;100.00
53300;BME280;39187;48.476;8.310;2023-07-30T08:21:57;91243.69;;;14.88;100.00
53300;BME280;39187;48.476;8.310;2023-07-30T08:24:24;91246.63;;;14.80;100.00
53300;BME280;39187;48.476;8.310;2023-07-30T08:26:50;91261.44;;;14.94;100.00
53300;BME280;39187;48.476;8.310;2023-07-30T08:29:15;91261.66;;;14.78;100.00
53300;BME280;39187;48.476;8.310;2023-07-30T08:31:41;91269.78;;;14.65;100.00
53300;BME280;39187;48.476;8.310;2023-07-30T08:34:07;91270.94;;;14.64;100.00
53300;BME280;39187;48.476;8.310;2023-07-30T08:36:32;91252.94;;;14.65;100.00
53300;BME280;39187;48.476;8.310;2023-07-30T08:38:58;91267.09;;;14.65;100.00
53300;BME280;39187;48.476;8.310;2023-07-30T08:41:24;91272.75;;;14.46;100.00
53300;BME280;39187;48.476;8.310;2023-07-30T08:43:50;91273.25;;;14.19;100.00
53300;BME280;39187;48.476;8.310;2023-07-30T08:46:17;91280.47;;;14.31;100.00
53300;BME280;39187;48.476;8.310;2023-07-30T08:48:43;91280.34;;;14.34;100.00
53300;BME280;39187;48.476;8.310;2023-07-30T08:51:08;91274.63;;;14.58;100.00
53300;BME280;39187;48.476;8.310;2023-07-30T08:53:35;91272.50;;;14.74;100.00
53300;BME280;39187;48.476;8.310;2023-07-30T08:56:01;91278.97;;;14.86;100.00
53300;BME280;39187;48.476;8.310;2023-07-30T08:58:28;91282.97;;;15.12;100.00
53300;BME280;39187;48.476;8.310;2023-07-30T09:00:55;91281.41;;;15.24;100.00
53300;BME280;39187;48.476;8.310;2023-07-30T09:03:23;91283.38;;;15.33;100.00
53300;BME280;39187;48.476;8.310;2023-07-30T09:05:49;91275.75;;;15.53;100.00
53300;BME280;39187;48.476;8.310;2023-07-30T09:08:15;91281.44;;;15.64;100.00
53300;BME280;39187;48.476;8.310;2023-07-30T09:10:43;91281.16;;;15.71;100.00
53300;BME280;39187;48.476;8.310;2023-07-30T09:13:08;91290.31;;;15.92;100.00
53300;BME280;39187;48.476;8.310;2023-07-30T09:15:37;91294.00;;;15.76;100.00
53300;BME280;39187;48.476;8.310;2023-07-30T09:18:06;91288.25;;;16.05;100.00
53300;BME280;39187;48.476;8.310;2023-07-30T09:20:41;91296.66;;;16.25;100.00
53300;BME280;39187;48.476;8.310;2023-07-30T09:23:08;91290.38;;;16.47;100.00
53300;BME280;39187;48.476;8.310;2023-07-30T09:25:34;91288.91;;;16.82;100.00
53300;BME280;39187;48.476;8.310;2023-07-30T09:28:00;91292.34;;;16.82;100.00
53300;BME280;39187;48.476;8.310;2023-07-30T09:30:26;91297.88;;;16.79;100.00
53300;BME280;39187;48.476;8.310;2023-07-30T09:32:57;91301.28;;;17.07;100.00
53300;BME280;39187;48.476;8.310;2023-07-30T09:35:24;91303.75;;;17.29;100.00
53300;BME280;39187;48.476;8.310;2023-07-30T09:37:51;91302.50;;;17.48;100.00
53300;BME280;39187;48.476;8.310;2023-07-30T09:40:34;91312.34;;;17.69;100.00
53300;BME280;39187;48.476;8.310;2023-07-30T09:43:02;91315.50;;;17.58;100.00
53300;BME280;39187;48.476;8.310;2023-07-30T09:45:27;91322.16;;;17.81;100.00
53300;BME280;39187;48.476;8.310;2023-07-30T09:47:54;91320.59;;;17.98;100.00
53300;BME280;39187;48.476;8.310;2023-07-30T09:50:21;91324.72;;;17.76;100.00
53300;BME280;39187;48.476;8.310;2023-07-30T09:52:47;91330.34;;;17.87;100.00
53300;BME280;39187;48.476;8.310;2023-07-30T09:55:15;91337.16;;;18.06;100.00
53300;BME280;39187;48.476;8.310;2023-07-30T09:57:41;91334.44;;;18.06;100.00
53300;BME280;39187;48.476;8.310;2023-07-30T10:00:07;91330.94;;;17.91;100.00
53300;BME280;39187;48.476;8.310;2023-07-30T10:02:39;91341.78;;;18.06;100.00
53300;BME280;39187;48.476;8.310;2023-07-30T10:05:16;91331.38;;;18.46;100.00
53300;BME280;39187;48.476;8.310;2023-07-30T10:07:51;91347.16;;;18.06;100.00
53300;BME280;39187;48.476;8.310;2023-07-30T10:10:19;91339.84;;;18.06;99.96
53300;BME280;39187;48.476;8.310;2023-07-30T10:12:47;91345.59;;;18.23;99.75
53300;BME280;39187;48.476;8.310;2023-07-30T10:15:19;91343.56;;;18.41;96.41
53300;BME280;39187;48.476;8.310;2023-07-30T10:17:45;91344.75;;;18.40;97.88
53300;BME280;39187;48.476;8.310;2023-07-30T10:20:23;91350.06;;;18.26;98.41
53300;BME280;39187;48.476;8.310;2023-07-30T10:22:57;91347.06;;;18.00;100.00
53300;BME280;39187;48.476;8.310;2023-07-30T10:25:43;91331.75;;;18.06;96.45
53300;BME280;39187;48.476;8.310;2023-07-30T10:28:34;91340.56;;;17.74;100.00
53300;BME280;39187;48.476;8.310;2023-07-30T10:31:05;91334.72;;;18.17;96.92
53300;BME280;39187;48.476;8.310;2023-07-30T10:33:47;91343.41;;;17.79;98.93
53300;BME280;39187;48.476;8.310;2023-07-30T10:36:17;91341.19;;;17.69;99.30
53300;BME280;39187;48.476;8.310;2023-07-30T10:38:43;91351.34;;;18.16;96.62
53300;BME280;39187;48.476;8.310;2023-07-30T10:41:13;91349.53;;;17.80;96.57
53300;BME280;39187;48.476;8.310;2023-07-30T10:43:48;91355.47;;;17.93;96.08
53300;BME280;39187;48.476;8.310;2023-07-30T10:46:16;91348.59;;;17.92;97.39
53300;BME280;39187;48.476;8.310;2023-07-30T10:48:43;91350.16;;;17.75;100.00
53300;BME280;39187;48.476;8.310;2023-07-30T10:51:12;91360.97;;;17.47;98.05
53300;BME280;39187;48.476;8.310;2023-07-30T10:53:38;91358.47;;;17.26;99.40
53300;BME280;39187;48.476;8.310;2023-07-30T10:56:07;91369.34;;;17.49;97.78
53300;BME280;39187;48.476;8.310;2023-07-30T10:58:35;91370.16;;;17.92;96.17
53300;BME280;39187;48.476;8.310;2023-07-30T11:01:02;91357.28;;;17.17;98.31
53300;BME280;39187;48.476;8.310;2023-07-30T11:03:29;91354.31;;;17.15;98.41
53300;BME280;39187;48.476;8.310;2023-07-30T11:05:55;91360.88;;;17.14;99.40
53300;BME280;39187;48.476;8.310;2023-07-30T11:08:35;91352.22;;;17.10;98.59
53300;BME280;39187;48.476;8.310;2023-07-30T11:11:02;91345.06;;;17.07;100.00
53300;BME280;39187;48.476;8.310;2023-07-30T11:13:27;91350.25;;;17.11;100.00
53300;BME280;39187;48.476;8.310;2023-07-30T11:15:53;91345.50;;;16.97;100.00
53300;BME280;39187;48.476;8.310;2023-07-30T11:18:19;91357.91;;;16.94;100.00
53300;BME280;39187;48.476;8.310;2023-07-30T11:20:44;91341.91;;;17.18;100.00
53300;BME280;39187;48.476;8.310;2023-07-30T11:23:20;91357.13;;;17.12;100.00
53300;BME280;39187;48.476;8.310;2023-07-30T11:25:49;91358.34;;;17.02;100.00
53300;BME280;39187;48.476;8.310;2023-07-30T11:28:39;91353.97;;;17.22;100.00
53300;BME280;39187;48.476;8.310;2023-07-30T11:31:07;91373.28;;;17.03;100.00
53300;BME280;39187;48.476;8.310;2023-07-30T11:33:39;91369.38;;;17.31;100.00
53300;BME280;39187;48.476;8.310;2023-07-30T11:36:08;91365.66;;;16.92;100.00
53300;BME280;39187;48.476;8.310;2023-07-30T11:38:35;91361.19;;;17.07;100.00
53300;BME280;39187;48.476;8.310;2023-07-30T11:41:01;91369.88;;;17.02;100.00
53300;BME280;39187;48.476;8.310;2023-07-30T11:43:27;91360.59;;;16.85;100.00
53300;BME280;39187;48.476;8.310;2023-07-30T11:46:09;91352.81;;;16.78;100.00
53300;BME280;39187;48.476;8.310;2023-07-30T11:48:34;91354.47;;;16.66;100.00
53300;BME280;39187;48.476;8.310;2023-07-30T11:51:01;91357.75;;;16.61;100.00
53300;BME280;39187;48.476;8.310;2023-07-30T11:53:46;91360.59;;;16.85;100.00
53300;BME280;39187;48.476;8.310;2023-07-30T11:56:26;91351.63;;;16.97;100.00
53300;BME280;39187;48.476;8.310;2023-07-30T11:59:19;91364.16;;;16.91;100.00
53300;BME280;39187;48.476;8.310;2023-07-30T12:01:45;91357.28;;;16.90;100.00
53300;BME280;39187;48.476;8.310;2023-07-30T12:04:11;91361.47;;;17.18;100.00
53300;BME280;39187;48.476;8.310;2023-07-30T12:06:45;91365.34;;;17.17;100.00
53300;BME280;39187;48.476;8.310;2023-07-30T12:09:16;91356.41;;;17.20;100.00
53300;BME280;39187;48.476;8.310;2023-07-30T12:11:53;91350.72;;;17.00;100.00
53300;BME280;39187;48.476;8.310;2023-07-30T12:14:22;91361.63;;;16.78;100.00
53300;BME280;39187;48.476;8.310;2023-07-30T12:16:48;91373.00;;;17.01;100.00
53300;BME280;39187;48.476;8.310;2023-07-30T12:19:13;91369.09;;;16.93;100.00
53300;BME280;39187;48.476;8.310;2023-07-30T12:21:39;91379.28;;;16.89;100.00
53300;BME280;39187;48.476;8.310;2023-07-30T12:24:05;91379.13;;;16.92;100.00
53300;BME280;39187;48.476;8.310;2023-07-30T12:26:30;91384.63;;;16.61;100.00
53300;BME280;39187;48.476;8.310;2023-07-30T12:28:56;91371.13;;;16.43;100.00
53300;BME280;39187;48.476;8.310;2023-07-30T12:31:21;91380.69;;;16.53;100.00
53300;BME280;39187;48.476;8.310;2023-07-30T12:33:47;91381.94;;;16.70;100.00
53300;BME280;39187;48.476;8.310;2023-07-30T12:36:12;91379.34;;;16.49;100.00
53300;BME280;39187;48.476;8.310;2023-07-30T12:38:39;91380.38;;;16.42;100.00
53300;BME280;39187;48.476;8.310;2023-07-30T12:41:04;91382.59;;;16.34;100.00
53300;BME280;39187;48.476;8.310;2023-07-30T12:43:30;91388.00;;;16.53;100.00
53300;BME280;39187;48.476;8.310;2023-07-30T12:45:55;91388.31;;;16.55;100.00
53300;BME280;39187;48.476;8.310;2023-07-30T12:48:21;91391.94;;;16.61;100.00